Have a Safe July 4th! 

Flight Track Log - Related Links

Times and Time Zones

All times are in EDT time to prevent confusion due to time zone crossing. See the ASQ4356 flight status page for this flight to view local times or setup timezone preferences in your user account.

Time Position Orientation Groundspeed Altitude Reporting Facility
EDT Latitude Longitude Course Direction KTS MPH feet Rate Location/Type
Sun 09:12:01 PM 29.9578 -95.3464 276° West 159 183 1,000  Level Houston Center
Sun 09:13:02 PM 29.9411 -95.3942 248° West 237 273 2,800 1,875 Climbing Houston Center
Sun 09:14:00 PM 30.0231 -95.7080 277° West  Level FlightAware Approximate
Sun 09:14:09 PM 29.9653 -95.4758 289° West 252 290 5,000  Level Houston Center
Sun 09:15:00 PM 30.0361 -95.8335 276° West  Level FlightAware Approximate
Sun 09:15:25 PM 29.9861 -95.5842 283° West 272 313 7,500  Level Houston Center
Sun 09:16:00 PM 30.0466 -95.9593 276° West  Level FlightAware Approximate
Sun 09:16:26 PM 30.0019 -95.6744 281° West 283 326 9,400  Level Houston Center
Sun 09:17:00 PM 30.0696 -96.0817 276° West  Level FlightAware Approximate
Sun 09:17:27 PM 30.0181 -95.7683 281° West 296 341 10,900  Level Houston Center
Sun 09:18:29 PM 30.0364 -95.8711 282° West 325 374 12,100 1,220 Climbing Houston Center
Sun 09:19:30 PM 30.0564 -95.9814 282° West 348 400 13,400 1,230 Climbing Houston Center
Sun 09:20:31 PM 30.0767 -96.1003 281° West 361 415 14,600 1,171 Climbing Houston Center
Sun 09:21:33 PM 30.0944 -96.2150 280° West 365 420 15,800 1,073 Climbing Houston Center
Sun 09:22:34 PM 30.1131 -96.3350 280° West 377 434 16,800 1,033 Climbing Houston Center
Sun 09:23:35 PM 30.1325 -96.4672 280° West 386 444 17,900 1,082 Climbing Houston Center
Sun 09:24:36 PM 30.1519 -96.5936 280° West 393 452 19,000 1,024 Climbing Houston Center
Sun 09:25:38 PM 30.1717 -96.7200 280° West 397 457 20,000 976 Climbing Houston Center
Sun 09:26:39 PM 30.1908 -96.8489 280° West 401 461 21,000 1,033 Climbing Houston Center
Sun 09:27:40 PM 30.2106 -96.9808 280° West 408 470 22,100 1,033 Climbing Houston Center
Sun 09:28:41 PM 30.2289 -97.1122 279° West 409 471 23,100 976 Climbing Houston Center
Sun 09:29:43 PM 30.2486 -97.2472 280° West 417 480 24,100 976 Climbing Houston Center
Sun 09:30:44 PM 30.2850 -97.3725 289° West 411 473 25,100 984 Climbing Houston Center
Sun 09:31:45 PM 30.3314 -97.4953 294° West 411 473 26,100 1,033 Climbing Houston Center
Sun 09:32:46 PM 30.3786 -97.6172 294° West 408 470 27,200 1,033 Climbing Houston Center
Sun 09:33:47 PM 30.4253 -97.7400 294° West 410 472 28,200 976 Climbing Houston Center
Sun 09:34:49 PM 30.4717 -97.8644 293° West 414 476 29,200 878 Climbing Houston Center
Sun 09:35:50 PM 30.5189 -97.9875 294° West 413 475 30,000 393 Climbing Houston Center
Sun 09:36:51 PM 30.5675 -98.1192 293° West 433 498 30,000  Level Houston Center
Sun 09:37:52 PM 30.6197 -98.2569 294° West 457 526 30,000  Level Houston Center
Sun 09:38:53 PM 30.6817 -98.4225 294° West 472 543 30,000  Level Houston Center
Sun 09:39:54 PM 30.7344 -98.5656 293° West 474 545 30,000  Level Houston Center
Sun 09:40:55 PM 30.7875 -98.7092 293° West 478 550 30,000  Level Houston Center
Sun 09:41:56 PM 30.8419 -98.8553 293° West 485 558 30,000  Level Houston Center
Sun 09:42:58 PM 30.8958 -99.0000 293° West 485 558 30,000  Level Houston Center
Sun 09:43:59 PM 30.9489 -99.1467 293° West 486 559 30,000  Level Houston Center
Sun 09:45:00 PM 30.9992 -99.2853 293° West 482 555 30,000  Level Houston Center
Sun 09:46:01 PM 31.0506 -99.4286 293° West 482 555 30,000  Level Houston Center
Sun 09:47:02 PM 31.1014 -99.5667 293° West 466 536 30,000  Level Houston Center
Sun 09:48:03 PM 31.1531 -99.7128 292° West 481 554 30,000  Level Houston Center
Sun 09:49:04 PM 31.2056 -99.8567 293° West 484 557 30,000  Level Houston Center
Sun 09:50:05 PM 31.2569 -99.9983 293° West 478 550 30,000  Level Houston Center
Sun 09:51:06 PM 31.3189 -100.1725 293° West 485 558 30,000  Level Houston Center
Sun 09:52:07 PM 31.3692 -100.3167 292° West 483 556 30,000 -885 Level Houston Center
Sun 09:53:08 PM 31.4206 -100.4586 293° West 475 547 28,200 -1,820 Descending Houston Center
Sun 09:54:09 PM 31.4694 -100.5997 292° West 466 536 26,300 -1,953 Descending Houston Center
Sun 09:55:17 PM 31.5256 -100.7667 292° West 465 535 24,000 -2,016 Descending Fort Worth Center
Sun 09:56:17 PM 31.5719 -100.8975 293° West 455 524 22,000 -1,950 Descending Fort Worth Center
Sun 09:57:17 PM 31.6186 -101.0286 293° West 441 507 20,100 -1,950 Descending Fort Worth Center
Sun 09:58:17 PM 31.6606 -101.1572 291° West 430 495 18,100 -2,000 Descending Fort Worth Center
Sun 09:59:17 PM 31.7047 -101.2836 292° West 430 495 16,100 -1,950 Descending Fort Worth Center
Sun 10:00:17 PM 31.7469 -101.4075 292° West 419 482 14,200 -1,800 Descending Fort Worth Center
Sun 10:01:17 PM 31.7850 -101.5167 292° West 394 453 12,500 -1,700 Descending Fort Worth Center
Sun 10:02:17 PM 31.8192 -101.6208 291° West 364 419 10,800 -1,650 Descending Fort Worth Center
Sun 10:03:17 PM 31.8494 -101.7128 291° West 332 382 9,200 -1,650 Descending Fort Worth Center
Sun 10:04:17 PM 31.8781 -101.7947 292° West 311 358 7,500 -1,600 Descending Fort Worth Center
Sun 10:05:17 PM 31.9083 -101.8794 293° West 294 338 6,000 -750 Descending Fort Worth Center
Sun 10:06:17 PM 31.9453 -101.9547 300° West 278 320 6,000  Level Fort Worth Center
Sun 10:07:17 PM 31.9803 -102.0297 299° West 265 305 6,000 -450 Level Fort Worth Center
Sun 10:08:17 PM 32.0133 -102.0953 301° West 252 290 5,100 -900 Descending Fort Worth Center
Sun 10:09:17 PM 32.0356 -102.1697 289° West 238 274 4,200 -900 Descending Fort Worth Center

Login

Don't have an account? Register now (free) for customized features, flight alerts, and more!